createdAt,value
2019-04-20T00:01:11.714Z,162.47
2019-04-20T00:03:42.359Z,163.20
2019-04-20T00:06:09.251Z,167.60
2019-04-20T00:08:40.746Z,162.30
2019-04-20T00:11:14.157Z,155.70
2019-04-20T00:13:47.687Z,156.17
2019-04-20T00:16:08.523Z,165.53
2019-04-20T00:18:43.028Z,152.37
2019-04-20T00:24:37.506Z,212.80
2019-04-20T00:27:27.139Z,175.57
2019-04-20T00:29:56.096Z,198.70
2019-04-20T00:32:14.602Z,179.70
2019-04-20T00:34:39.878Z,182.93
2019-04-20T00:37:05.835Z,175.87
2019-04-20T00:39:34.361Z,194.53
2019-04-20T00:42:07.552Z,162.67
2019-04-20T00:44:35.876Z,214.77
2019-04-20T00:47:12.061Z,175.83
2019-04-20T00:49:50.886Z,198.60
2019-04-20T00:54:36.923Z,177.43
2019-04-20T00:57:20.407Z,163.13
2019-04-20T01:00:03.623Z,186.93
2019-04-20T01:02:22.189Z,166.30
2019-04-20T01:05:02.540Z,172.53
2019-04-20T01:07:38.558Z,162.37
2019-04-20T01:10:02.849Z,171.90
2019-04-20T01:12:33.776Z,165.07
2019-04-20T01:15:04.277Z,166.83
2019-04-20T01:17:30.959Z,170.77
2019-04-20T01:19:58.530Z,167.07
2019-04-20T01:22:28.403Z,152.47
2019-04-20T01:25:00.141Z,168.13
2019-04-20T01:27:40.804Z,155.67
2019-04-20T01:30:08.338Z,161.50
2019-04-20T01:32:34.253Z,182.87
2019-04-20T01:35:04.774Z,173.17
2019-04-20T01:37:36.477Z,154.17
2019-04-20T01:39:56.808Z,173.43
2019-04-20T01:42:23.331Z,151.73
2019-04-20T01:44:53.601Z,172.40
2019-04-20T01:47:23.905Z,161.73
2019-04-20T01:49:58.570Z,170.70
2019-04-20T01:52:27.096Z,173.83
2019-04-20T01:55:17.356Z,175.03
2019-04-20T01:57:54.782Z,164.13
2019-04-20T02:00:28.439Z,163.57
2019-04-20T02:03:00.258Z,156.37
2019-04-20T02:05:29.669Z,182.67
2019-04-20T02:07:55.576Z,161.03
2019-04-20T02:10:33.234Z,180.77
2019-04-20T02:12:58.352Z,159.83
2019-04-20T02:15:30.068Z,160.80
2019-04-20T02:18:07.885Z,167.27
2019-04-20T02:20:37.542Z,175.13
2019-04-20T02:23:06.281Z,178.20
2019-04-20T02:25:20.662Z,175.83
2019-04-20T02:27:53.142Z,177.17
2019-04-20T02:33:40.127Z,175.13
2019-04-20T02:36:23.733Z,160.70
2019-04-20T02:41:39.803Z,157.93
2019-04-20T02:46:33.338Z,154.37
2019-04-20T02:49:10.255Z,156.97
2019-04-20T02:51:35.460Z,156.40
2019-04-20T02:54:16.667Z,158.63
2019-04-20T02:56:36.189Z,166.30
2019-04-20T02:59:12.653Z,172.40
2019-04-20T03:01:43.620Z,160.20
2019-04-20T03:03:55.992Z,168.00
2019-04-20T03:06:32.686Z,173.17
2019-04-20T03:09:15.270Z,147.63
2019-04-20T03:11:46.479Z,157.93
2019-04-20T03:14:03.965Z,158.73
2019-04-20T03:16:35.741Z,161.53
2019-04-20T03:19:02.529Z,174.63
2019-04-20T03:21:37.978Z,166.07
2019-04-20T03:24:12.984Z,154.23
2019-04-20T03:26:55.993Z,168.70
2019-04-20T03:30:03.659Z,180.17
2019-04-20T03:35:30.139Z,173.67
2019-04-20T03:37:45.744Z,162.90
2019-04-20T03:40:05.513Z,178.67
2019-04-20T03:42:18.294Z,149.07
2019-04-20T03:44:56.469Z,161.87
2019-04-20T03:47:30.481Z,164.03
2019-04-20T03:50:14.689Z,163.50
2019-04-20T03:52:44.974Z,143.63
2019-04-20T03:55:24.253Z,165.93
2019-04-20T03:58:10.796Z,145.37
2019-04-20T04:01:19.919Z,155.97
2019-04-20T04:03:58.762Z,162.97
2019-04-20T04:06:23.521Z,153.37
2019-04-20T04:08:55.876Z,155.90
2019-04-20T04:11:26.477Z,156.10
2019-04-20T04:13:39.724Z,165.63
2019-04-20T04:16:11.405Z,165.27
2019-04-20T04:18:41.001Z,155.20
2019-04-20T04:21:11.459Z,160.43
2019-04-20T04:23:54.250Z,155.67
2019-04-20T04:26:22.301Z,166.97
2019-04-20T04:28:47.517Z,158.50
2019-04-20T04:31:26.277Z,156.60
2019-04-20T04:36:17.759Z,156.70
2019-04-20T04:39:11.170Z,175.20
2019-04-20T04:41:36.336Z,180.97
2019-04-20T04:43:52.120Z,175.33
2019-04-20T04:46:03.888Z,164.80
2019-04-20T04:48:37.271Z,152.47
2019-04-20T04:51:08.977Z,162.83
2019-04-20T04:53:44.188Z,165.97
2019-04-20T04:56:07.372Z,169.13
2019-04-20T04:58:31.898Z,156.57
2019-04-20T05:01:09.776Z,157.63
2019-04-20T05:03:44.720Z,158.17
2019-04-20T05:06:23.149Z,154.27
2019-04-20T05:08:45.292Z,158.57
2019-04-20T05:11:08.881Z,162.53
2019-04-20T05:13:44.736Z,160.60
2019-04-20T05:16:19.443Z,157.67
2019-04-20T05:18:57.896Z,147.43
2019-04-20T05:21:34.141Z,156.90
2019-04-20T05:24:03.250Z,157.63
2019-04-20T05:26:44.591Z,178.17
2019-04-20T05:29:04.627Z,164.73
2019-04-20T05:31:31.004Z,183.73
2019-04-20T05:34:15.779Z,158.23
2019-04-20T05:37:03.682Z,143.23
2019-04-20T05:39:53.227Z,119.07
2019-04-20T05:42:03.377Z,117.50
2019-04-20T05:44:42.783Z,124.00
2019-04-20T05:47:11.038Z,117.77
2019-04-20T05:49:34.816Z,123.77
2019-04-20T05:52:25.387Z,117.00
2019-04-20T05:54:39.069Z,123.37
2019-04-20T05:57:14.991Z,120.13
2019-04-20T05:59:59.433Z,131.57
2019-04-20T06:02:26.273Z,133.97
2019-04-20T06:05:03.218Z,144.37
2019-04-20T06:07:26.807Z,137.93
2019-04-20T06:09:58.044Z,151.60
2019-04-20T06:12:19.822Z,140.43
2019-04-20T06:15:04.519Z,138.90
2019-04-20T06:17:55.372Z,142.07
2019-04-20T06:20:31.064Z,132.67
2019-04-20T06:23:10.066Z,126.93
2019-04-20T06:25:50.242Z,132.73
2019-04-20T06:28:01.963Z,137.97
2019-04-20T06:30:31.009Z,133.87
2019-04-20T06:34:30.273Z,135.17
2019-04-20T06:36:49.658Z,137.80
2019-04-20T06:39:24.393Z,145.33
2019-04-20T06:44:36.925Z,152.30
2019-04-20T06:46:59.148Z,139.27
2019-04-20T06:52:15.428Z,139.30
2019-04-20T06:55:05.261Z,139.40
2019-04-20T06:57:43.148Z,133.93
2019-04-20T07:00:12.139Z,141.03
2019-04-20T07:02:43.076Z,138.10
2019-04-20T07:05:15.319Z,138.63
2019-04-20T07:07:43.396Z,139.43
2019-04-20T07:10:14.713Z,136.77
2019-04-20T07:12:36.937Z,142.23
2019-04-20T07:14:58.845Z,139.70
2019-04-20T07:17:55.016Z,138.53
2019-04-20T07:20:53.991Z,132.50
2019-04-20T07:25:58.542Z,137.13
2019-04-20T07:28:26.562Z,134.93
2019-04-20T07:30:58.234Z,136.37
2019-04-20T07:33:30.074Z,143.00
2019-04-20T07:35:52.447Z,133.97
2019-04-20T07:41:29.601Z,138.63
2019-04-20T07:43:58.982Z,134.57
2019-04-20T07:46:35.293Z,143.30
2019-04-20T07:48:50.640Z,143.83
2019-04-20T07:51:10.312Z,139.17
2019-04-20T07:53:40.358Z,146.97
2019-04-20T07:56:25.148Z,142.73
2019-04-20T07:58:41.108Z,143.30
2019-04-20T08:01:45.438Z,147.97
2019-04-20T08:04:09.295Z,144.80
2019-04-20T08:06:28.837Z,146.97
2019-04-20T08:09:08.684Z,142.70
2019-04-20T08:11:50.445Z,150.23
2019-04-20T08:14:18.126Z,153.90
2019-04-20T08:19:45.684Z,155.03
2019-04-20T08:22:19.920Z,153.70
2019-04-20T08:24:42.826Z,152.10
2019-04-20T08:27:13.160Z,146.63
2019-04-20T08:33:04.236Z,162.67
2019-04-20T08:35:47.428Z,152.90
2019-04-20T08:38:37.110Z,143.87
2019-04-20T08:40:43.477Z,159.20
2019-04-20T08:45:46.589Z,157.20
2019-04-20T08:48:18.980Z,154.73
2019-04-20T08:50:48.539Z,154.73
2019-04-20T08:53:23.144Z,147.63
2019-04-20T08:58:59.727Z,154.70
2019-04-20T09:05:27.458Z,154.07
2019-04-20T09:08:14.393Z,149.50
2019-04-20T09:11:47.988Z,168.10
2019-04-20T09:14:35.188Z,159.70
2019-04-20T09:17:39.839Z,142.10
2019-04-20T09:21:27.347Z,160.50
2019-04-20T09:25:54.534Z,151.80
2019-04-20T09:32:26.305Z,156.43
2019-04-20T09:35:00.045Z,198.60
2019-04-20T09:37:35.792Z,179.95
2019-04-20T09:40:21.623Z,198.93
2019-04-20T09:42:38.521Z,180.95
2019-04-20T09:45:13.097Z,184.85
2019-04-20T09:47:43.310Z,185.57
2019-04-20T09:50:22.310Z,184.55
2019-04-20T09:52:51.387Z,185.78
2019-04-20T09:55:22.068Z,181.97
2019-04-20T09:57:54.220Z,181.12
2019-04-20T10:00:26.965Z,192.55
2019-04-20T10:02:39.910Z,181.67
2019-04-20T10:05:09.928Z,176.87
2019-04-20T10:07:39.271Z,190.62
2019-04-20T10:10:18.785Z,188.40
2019-04-20T10:12:37.632Z,208.97
2019-04-20T10:15:12.188Z,197.72
2019-04-20T10:17:36.657Z,192.22
2019-04-20T10:20:11.519Z,186.90
2019-04-20T10:22:36.090Z,186.75
2019-04-20T10:25:04.597Z,200.55
2019-04-20T10:27:32.749Z,182.50
2019-04-20T10:30:02.757Z,198.70
2019-04-20T10:32:37.754Z,194.57
2019-04-20T10:35:04.418Z,203.32
2019-04-20T10:37:37.781Z,186.73
2019-04-20T10:40:06.743Z,190.12
2019-04-20T10:42:34.696Z,179.70
2019-04-20T10:45:04.156Z,182.45
2019-04-20T10:47:33.303Z,192.53
2019-04-20T10:50:00.982Z,214.38
2019-04-20T10:52:29.872Z,172.28
2019-04-20T10:55:00.550Z,187.97
2019-04-20T10:57:28.312Z,172.65
2019-04-20T10:59:55.845Z,191.65
2019-04-20T11:02:23.652Z,187.18
2019-04-20T11:04:54.947Z,185.70
2019-04-20T11:07:26.373Z,194.60
2019-04-20T11:10:07.964Z,202.13
2019-04-20T11:12:28.342Z,194.13
2019-04-20T11:14:58.655Z,186.03
2019-04-20T11:17:29.771Z,186.52
2019-04-20T11:19:57.215Z,198.93
2019-04-20T11:22:26.247Z,180.75
2019-04-20T11:24:54.343Z,197.72
2019-04-20T11:27:22.566Z,198.32
2019-04-20T11:29:51.984Z,200.07
2019-04-20T11:32:22.233Z,223.22
2019-04-20T11:34:51.274Z,211.07
2019-04-20T11:37:19.446Z,206.63
2019-04-20T11:39:47.415Z,219.77
2019-04-20T11:42:14.855Z,182.20
2019-04-20T11:44:42.510Z,194.70
2019-04-20T11:47:10.598Z,176.75
2019-04-20T11:49:39.690Z,200.15
2019-04-20T11:52:09.960Z,186.07
2019-04-20T11:54:38.475Z,195.90
2019-04-20T11:57:07.086Z,184.25
2019-04-20T11:59:34.984Z,197.10
2019-04-20T12:02:20.126Z,182.50
2019-04-20T12:05:05.946Z,192.10
2019-04-20T12:07:19.229Z,184.48
2019-04-20T12:09:47.293Z,176.65
2019-04-20T12:12:29.310Z,185.12
2019-04-20T12:14:44.532Z,216.88
2019-04-20T12:17:13.365Z,175.78
2019-04-20T12:19:41.931Z,182.45
2019-04-20T12:22:09.743Z,166.95
2019-04-20T12:24:38.189Z,186.55
2019-04-20T12:27:07.009Z,166.05
2019-04-20T12:29:34.771Z,189.35
2019-04-20T12:32:05.477Z,170.75
2019-04-20T12:34:32.298Z,184.80
2019-04-20T12:37:00.880Z,171.85
2019-04-20T12:39:29.034Z,194.62
2019-04-20T12:41:58.851Z,179.45
2019-04-20T12:44:25.863Z,197.70
2019-04-20T12:46:53.930Z,183.22
2019-04-20T12:49:21.670Z,195.65
2019-04-20T12:51:57.085Z,200.22
2019-04-20T12:54:22.693Z,195.53
2019-04-20T12:56:52.985Z,189.45
2019-04-20T12:59:23.342Z,218.05
2019-04-20T13:01:51.408Z,178.80
2019-04-20T13:04:20.532Z,203.47
2019-04-20T13:06:49.307Z,175.50
2019-04-20T13:09:18.910Z,205.85
2019-04-20T13:11:59.061Z,185.10
2019-04-20T13:15:24.583Z,202.90
2019-04-20T13:17:54.237Z,175.60
2019-04-20T13:20:21.921Z,183.10
2019-04-20T13:22:50.799Z,193.93
2019-04-20T13:25:19.062Z,189.10
2019-04-20T13:27:47.263Z,190.33
2019-04-20T13:30:15.460Z,173.50
2019-04-20T13:32:45.716Z,188.53
2019-04-20T13:35:14.106Z,176.40
2019-04-20T13:37:42.359Z,194.13
2019-04-20T13:40:12.696Z,164.30
2019-04-20T13:42:41.501Z,168.83
2019-04-20T13:45:10.890Z,155.20
2019-04-20T13:47:39.033Z,171.07
2019-04-20T13:50:07.228Z,195.50
2019-04-20T13:52:35.065Z,167.80
2019-04-20T13:55:03.272Z,181.20
2019-04-20T13:57:38.069Z,172.53
2019-04-20T14:00:26.207Z,168.33
2019-04-20T14:03:00.664Z,170.43
2019-04-20T14:05:33.087Z,163.30
2019-04-20T14:08:05.326Z,163.93
2019-04-20T14:10:33.415Z,155.73
2019-04-20T14:13:08.205Z,161.63
2019-04-20T14:15:31.195Z,158.53
2019-04-20T14:17:59.364Z,167.07
2019-04-20T14:20:27.196Z,187.13
2019-04-20T14:22:54.939Z,163.77
2019-04-20T14:25:22.948Z,168.87
2019-04-20T14:27:50.857Z,168.47
2019-04-20T14:30:19.283Z,165.00
2019-04-20T14:32:48.169Z,168.53
2019-04-20T14:35:16.741Z,158.43
2019-04-20T14:37:45.958Z,182.30
2019-04-20T14:40:14.556Z,155.87
2019-04-20T14:42:47.723Z,172.10
2019-04-20T14:45:12.658Z,179.83
2019-04-20T14:47:39.995Z,175.00
2019-04-20T14:50:09.791Z,183.03
2019-04-20T14:52:37.694Z,173.87
2019-04-20T14:55:06.090Z,173.20
2019-04-20T14:57:35.056Z,158.60
2019-04-20T15:00:22.065Z,161.07
2019-04-20T15:02:50.406Z,166.20
2019-04-20T15:05:19.156Z,184.10
2019-04-20T15:07:46.965Z,170.87
2019-04-20T15:10:16.162Z,182.93
2019-04-20T15:12:49.937Z,199.03
2019-04-20T15:15:14.654Z,182.13
2019-04-20T15:17:47.865Z,169.90
2019-04-20T15:20:35.234Z,186.20
2019-04-20T15:23:13.635Z,157.30
2019-04-20T15:25:42.230Z,198.87
2019-04-20T15:28:10.454Z,170.27
2019-04-20T15:30:38.376Z,174.73
2019-04-20T15:33:07.171Z,177.03
2019-04-20T15:35:34.807Z,184.23
2019-04-20T15:38:02.900Z,171.27
2019-04-20T15:40:31.054Z,158.87
2019-04-20T15:43:06.738Z,176.63
2019-04-20T15:45:29.449Z,170.63
2019-04-20T15:47:58.115Z,159.93
2019-04-20T15:50:27.704Z,172.10
2019-04-20T15:52:57.385Z,180.17
2019-04-20T15:55:31.067Z,166.53
2019-04-20T15:57:55.586Z,179.20
2019-04-20T16:00:24.615Z,177.43
2019-04-20T16:03:07.431Z,195.50
2019-04-20T16:05:47.194Z,172.53
2019-04-20T16:08:23.673Z,184.73
2019-04-20T16:10:51.383Z,172.70
2019-04-20T16:13:26.018Z,185.83
2019-04-20T16:15:49.770Z,161.87
2019-04-20T16:18:18.805Z,167.97
2019-04-20T16:20:56.547Z,161.53
2019-04-20T16:23:16.592Z,162.33
2019-04-20T16:25:53.353Z,165.77
2019-04-20T16:28:21.712Z,169.70
2019-04-20T16:30:51.628Z,164.00
2019-04-20T16:33:20.676Z,166.40
2019-04-20T16:35:48.433Z,154.80
2019-04-20T16:38:16.228Z,165.73
2019-04-20T16:40:44.335Z,169.60
2019-04-20T16:43:22.141Z,166.00
2019-04-20T16:45:41.724Z,167.50
2019-04-20T16:48:10.372Z,159.00
2019-04-20T16:50:38.189Z,179.87
2019-04-20T16:53:06.638Z,167.20
2019-04-20T16:55:34.855Z,172.03
2019-04-20T16:58:03.750Z,157.67
2019-04-20T17:00:33.441Z,158.17
2019-04-20T17:03:02.580Z,163.47
2019-04-20T17:05:31.524Z,165.13
2019-04-20T17:08:00.711Z,156.07
2019-04-20T17:10:28.970Z,158.20
2019-04-20T17:12:57.755Z,161.07
2019-04-20T17:15:25.633Z,168.03
2019-04-20T17:17:55.434Z,154.97
2019-04-20T17:20:25.286Z,164.17
2019-04-20T17:22:54.306Z,160.87
2019-04-20T17:25:22.026Z,160.07
2019-04-20T17:28:04.800Z,179.00
2019-04-20T17:30:59.010Z,165.40
2019-04-20T17:33:47.440Z,174.73
2019-04-20T17:36:12.410Z,156.47
2019-04-20T17:38:41.790Z,188.87
2019-04-20T17:41:29.265Z,158.77
2019-04-20T17:43:56.709Z,158.17
2019-04-20T17:46:17.403Z,166.83
2019-04-20T17:48:45.286Z,157.50
2019-04-20T17:51:28.725Z,163.20
2019-04-20T17:54:05.337Z,161.33
2019-04-20T17:56:31.003Z,153.43
2019-04-20T17:58:58.613Z,155.27
2019-04-20T18:02:09.056Z,161.70
2019-04-20T18:04:57.494Z,175.43
2019-04-20T18:07:24.990Z,157.30
2019-04-20T18:09:53.418Z,170.13
2019-04-20T18:12:01.937Z,158.93
2019-04-20T18:14:43.091Z,169.77
2019-04-20T18:17:21.996Z,152.00
2019-04-20T18:19:46.893Z,163.90
2019-04-20T18:22:16.039Z,160.73
2019-04-20T18:25:07.597Z,168.37
2019-04-20T18:27:31.729Z,147.90
2019-04-20T18:30:01.361Z,169.10
2019-04-20T18:32:31.905Z,152.13
2019-04-20T18:35:07.884Z,170.17
2019-04-20T18:37:34.442Z,167.80
2019-04-20T18:40:09.161Z,153.03
2019-04-20T18:42:39.884Z,177.17
2019-04-20T18:45:21.888Z,165.90
2019-04-20T18:47:49.653Z,152.30
2019-04-20T18:50:10.749Z,157.37
2019-04-20T18:52:35.678Z,155.50
2019-04-20T18:55:07.450Z,152.40
2019-04-20T18:57:34.944Z,161.47
2019-04-20T19:00:07.813Z,161.63
2019-04-20T19:02:42.963Z,164.83
2019-04-20T19:05:09.497Z,158.27
2019-04-20T19:07:41.411Z,152.17
2019-04-20T19:10:16.405Z,167.43
2019-04-20T19:12:47.785Z,149.87
2019-04-20T19:15:46.912Z,177.47
2019-04-20T19:18:31.637Z,153.23
2019-04-20T19:20:53.056Z,158.70
2019-04-20T19:23:20.935Z,145.97
2019-04-20T19:25:49.868Z,166.77
2019-04-20T19:28:23.085Z,156.00
2019-04-20T19:31:02.874Z,151.50
2019-04-20T19:33:33.061Z,147.53
2019-04-20T19:35:56.340Z,156.57
2019-04-20T19:38:25.760Z,155.63
2019-04-20T19:40:59.417Z,155.67
2019-04-20T19:43:28.818Z,162.37
2019-04-20T19:46:29.736Z,158.77
2019-04-20T19:48:32.673Z,155.07
2019-04-20T19:51:12.949Z,152.23
2019-04-20T19:53:36.582Z,158.50
2019-04-20T19:56:03.549Z,153.53
2019-04-20T19:58:30.287Z,184.20
2019-04-20T20:00:53.416Z,149.13
2019-04-20T20:03:19.782Z,155.17
2019-04-20T20:05:50.901Z,157.17
2019-04-20T20:08:23.641Z,158.87
2019-04-20T20:10:48.450Z,157.10
2019-04-20T20:13:16.286Z,150.77
2019-04-20T20:15:45.513Z,144.57
2019-04-20T20:18:31.009Z,159.70
2019-04-20T20:21:04.005Z,151.67
2019-04-20T20:23:16.068Z,150.57
2019-04-20T20:25:47.847Z,161.90
2019-04-20T20:28:27.105Z,151.03
2019-04-20T20:30:58.190Z,161.13
2019-04-20T20:33:37.881Z,158.23
2019-04-20T20:35:53.732Z,156.83
2019-04-20T20:38:23.093Z,144.57
2019-04-20T20:40:55.204Z,166.70
2019-04-20T20:43:22.777Z,143.53
2019-04-20T20:45:55.407Z,149.07
2019-04-20T20:48:24.431Z,158.37
2019-04-20T20:50:57.371Z,158.23
2019-04-20T20:53:21.837Z,159.77
2019-04-20T20:55:46.466Z,153.17
2019-04-20T20:58:18.315Z,156.93
2019-04-20T21:00:53.914Z,155.17
2019-04-20T21:03:22.131Z,145.20
2019-04-20T21:05:42.428Z,139.13
2019-04-20T21:08:11.105Z,137.23
2019-04-20T21:10:42.091Z,120.23
2019-04-20T21:13:10.961Z,128.67
2019-04-20T21:15:38.396Z,122.67
2019-04-20T21:18:31.293Z,131.63
2019-04-20T21:20:53.686Z,122.67
2019-04-20T21:23:20.040Z,134.17
2019-04-20T21:25:45.294Z,129.60
2019-04-20T21:28:08.950Z,128.33
2019-04-20T21:30:42.810Z,136.63
2019-04-20T21:33:07.846Z,129.20
2019-04-20T21:35:38.134Z,145.10
2019-04-20T21:38:08.490Z,129.57
2019-04-20T21:40:39.493Z,140.53
2019-04-20T21:43:07.288Z,146.13
2019-04-20T21:45:37.233Z,132.43
2019-04-20T21:48:12.009Z,136.30
2019-04-20T21:50:54.615Z,140.47
2019-04-20T21:53:10.605Z,128.87
2019-04-20T21:55:34.187Z,134.93
2019-04-20T21:58:03.589Z,133.63
2019-04-20T22:00:56.040Z,142.93
2019-04-20T22:03:22.685Z,130.07
2019-04-20T22:06:00.172Z,137.70
2019-04-20T22:08:28.426Z,128.47
2019-04-20T22:10:55.783Z,132.40
2019-04-20T22:13:29.283Z,131.30
2019-04-20T22:15:58.563Z,123.33
2019-04-20T22:18:24.000Z,128.37
2019-04-20T22:21:03.577Z,121.10
2019-04-20T22:23:36.553Z,125.90
2019-04-20T22:26:03.845Z,129.37
2019-04-20T22:28:22.276Z,125.80
2019-04-20T22:30:50.387Z,117.07
2019-04-20T22:33:27.034Z,122.70
2019-04-20T22:35:55.567Z,120.40
2019-04-20T22:38:28.810Z,122.13
2019-04-20T22:41:05.629Z,120.80
2019-04-20T22:43:31.394Z,125.07
2019-04-20T22:45:57.146Z,119.63
2019-04-20T22:48:25.110Z,145.30
2019-04-20T22:51:14.160Z,118.70
2019-04-20T22:53:35.583Z,127.80
2019-04-20T22:56:14.777Z,131.27
2019-04-20T22:58:34.769Z,125.60
2019-04-20T23:00:56.168Z,124.97
2019-04-20T23:03:20.857Z,123.53
2019-04-20T23:05:49.002Z,134.40
2019-04-20T23:08:17.018Z,116.27
2019-04-20T23:10:47.717Z,131.27
2019-04-20T23:13:13.834Z,126.47
2019-04-20T23:15:42.432Z,143.97
2019-04-20T23:18:11.955Z,151.47
2019-04-20T23:20:41.121Z,151.97
2019-04-20T23:23:11.008Z,155.80
2019-04-20T23:25:38.989Z,165.70
2019-04-20T23:28:11.354Z,156.37
2019-04-20T23:30:39.330Z,150.17
2019-04-20T23:33:05.879Z,157.90
2019-04-20T23:35:37.609Z,153.83
2019-04-20T23:38:11.212Z,156.60
2019-04-20T23:40:32.403Z,146.57
2019-04-20T23:43:07.786Z,155.37
2019-04-20T23:45:56.852Z,150.50
2019-04-20T23:48:38.958Z,153.53
2019-04-20T23:51:29.944Z,153.87
2019-04-20T23:53:48.230Z,148.47
2019-04-20T23:56:03.743Z,151.23
2019-04-20T23:58:38.210Z,154.60
